Bunn, NC (27508)

8:51 PM EST on November 24, 2014 (GMT -0500)
2Lazy2P Ranch | Change Station
CLOSE
Current Station
Personal Weather Station
Location: Zebulon, NC
Elevation: 200 ft
Nearby Weather Stations

Elev 200 ft 35.93 °N, 78.24 °W | Updated 0 second ago

Overcast
Overcast
67.5 °F
Feels Like 67.5 °F
N
3.4
Wind Variable Wind from South
Gusts 4.9 mph

Today
High -- | Low -- °F
--% Chance of Precip.
Yesterday
High -- | Low -- °F
Precip. -- in
6:58 AM 5:00 PM
Waxing Crescent, 8% visible
Pressure 29.91 in
Visibility 10.0 miles
Clouds Scattered Clouds 12000 ft
Dew Point 63 °F
Humidity 86%
Rainfall 0.00 in
Snow Depth Not available.
UV 0 out of 12
Pollen .30 out of 12
Air Quality Not available.
Flu Activity Not available.
METAR KLHZ 250135Z AUTO 20009G17KT 180V240 10SM SCT120 18/16 A2991 RMK AO2

More Conditions Fewer Conditions

Pressure 29.91 in
Visibility 10.0 miles
Clouds Scattered Clouds 12000 ft
Dew Point 63 °F
Humidity 86%
Rainfall 0.00 in
Snow Depth Not available.
UV 0 out of 12
Pollen .30 out of 12
Air Quality Not available.
Flu Activity Not available.
METAR KLHZ 250135Z AUTO 20009G17KT 180V240 10SM SCT120 18/16 A2991 RMK AO2

More Conditions Fewer Conditions

10-Day Weather Forecast

Almanac

Astronomy

Nov. 24, 2014 Rise Set
Actual Time
Civil Twilight
Nautical Twilight
Astronomical Twilight
Moon
Length of Visible Light
Length of Day
Tomorrow will be .
, % of the Moon is Illuminated

Today's Extremes

State Highs State Lows

Community

WunderPhotos

Upload Photos

1,773,459 photos uploaded!

WunderBlogs® & News

Nearby

Air Quality

  Air Quality AQ Index Pollutant
Not available.

Snow Depth

Station Depth Elevation

Earthquake Activity

City Distance Mag. Time & Date
Minimum magnitude displayed is 2.5.

Coastal Water Temperatures

Place Temperature

Nearby Weather Stations